sensor_id;sensor_type;location;lat;lon;timestamp;P1;durP1;ratioP1;P2;durP2;ratioP2
21777;SDS011;11050;52.222;20.916;2023-09-07T00:00:14;35.40;;;12.60;;
21777;SDS011;11050;52.222;20.916;2023-09-07T00:02:40;37.25;;;12.35;;
21777;SDS011;11050;52.222;20.916;2023-09-07T00:05:06;39.58;;;13.65;;
21777;SDS011;11050;52.222;20.916;2023-09-07T00:07:33;29.08;;;12.35;;
21777;SDS011;11050;52.222;20.916;2023-09-07T00:10:00;47.70;;;14.23;;
21777;SDS011;11050;52.222;20.916;2023-09-07T00:12:27;70.55;;;17.38;;
21777;SDS011;11050;52.222;20.916;2023-09-07T00:14:53;67.10;;;17.25;;
21777;SDS011;11050;52.222;20.916;2023-09-07T00:17:20;54.65;;;16.55;;
21777;SDS011;11050;52.222;20.916;2023-09-07T00:19:46;67.55;;;17.58;;
21777;SDS011;11050;52.222;20.916;2023-09-07T00:22:14;48.40;;;16.42;;
21777;SDS011;11050;52.222;20.916;2023-09-07T00:24:41;57.15;;;16.50;;
21777;SDS011;11050;52.222;20.916;2023-09-07T00:27:06;46.60;;;15.10;;
21777;SDS011;11050;52.222;20.916;2023-09-07T00:29:33;45.03;;;15.07;;
21777;SDS011;11050;52.222;20.916;2023-09-07T00:32:00;48.03;;;16.58;;
21777;SDS011;11050;52.222;20.916;2023-09-07T00:34:26;49.45;;;17.35;;
21777;SDS011;11050;52.222;20.916;2023-09-07T00:36:52;56.38;;;17.02;;
21777;SDS011;11050;52.222;20.916;2023-09-07T00:39:18;56.38;;;15.00;;
21777;SDS011;11050;52.222;20.916;2023-09-07T00:41:43;53.80;;;14.63;;
21777;SDS011;11050;52.222;20.916;2023-09-07T00:44:09;35.05;;;13.30;;
21777;SDS011;11050;52.222;20.916;2023-09-07T00:46:35;48.53;;;14.65;;
21777;SDS011;11050;52.222;20.916;2023-09-07T00:49:01;54.22;;;17.42;;
21777;SDS011;11050;52.222;20.916;2023-09-07T00:51:28;51.78;;;17.02;;
21777;SDS011;11050;52.222;20.916;2023-09-07T00:53:54;50.42;;;15.65;;
21777;SDS011;11050;52.222;20.916;2023-09-07T00:56:20;47.78;;;14.65;;
21777;SDS011;11050;52.222;20.916;2023-09-07T00:58:45;44.85;;;14.35;;
21777;SDS011;11050;52.222;20.916;2023-09-07T01:01:11;42.45;;;14.95;;
21777;SDS011;11050;52.222;20.916;2023-09-07T01:03:37;45.35;;;15.75;;
21777;SDS011;11050;52.222;20.916;2023-09-07T01:06:04;45.85;;;15.18;;
21777;SDS011;11050;52.222;20.916;2023-09-07T01:08:43;41.10;;;15.57;;
21777;SDS011;11050;52.222;20.916;2023-09-07T01:11:16;54.00;;;14.25;;
21777;SDS011;11050;52.222;20.916;2023-09-07T01:13:48;46.53;;;15.20;;
21777;SDS011;11050;52.222;20.916;2023-09-07T01:16:15;37.50;;;13.82;;
21777;SDS011;11050;52.222;20.916;2023-09-07T01:18:41;49.22;;;14.07;;
21777;SDS011;11050;52.222;20.916;2023-09-07T01:21:07;50.03;;;14.45;;
21777;SDS011;11050;52.222;20.916;2023-09-07T01:23:36;45.15;;;15.63;;
21777;SDS011;11050;52.222;20.916;2023-09-07T01:26:06;37.33;;;14.75;;
21777;SDS011;11050;52.222;20.916;2023-09-07T01:28:33;47.22;;;15.88;;
21777;SDS011;11050;52.222;20.916;2023-09-07T01:31:00;43.55;;;14.23;;
21777;SDS011;11050;52.222;20.916;2023-09-07T01:33:29;40.35;;;14.45;;
21777;SDS011;11050;52.222;20.916;2023-09-07T01:35:54;30.27;;;13.75;;
21777;SDS011;11050;52.222;20.916;2023-09-07T01:38:20;41.17;;;14.50;;
21777;SDS011;11050;52.222;20.916;2023-09-07T01:40:46;39.60;;;14.70;;
21777;SDS011;11050;52.222;20.916;2023-09-07T01:43:12;42.17;;;15.10;;
21777;SDS011;11050;52.222;20.916;2023-09-07T01:45:38;32.25;;;13.13;;
21777;SDS011;11050;52.222;20.916;2023-09-07T01:48:08;30.85;;;14.30;;
21777;SDS011;11050;52.222;20.916;2023-09-07T01:50:37;33.38;;;13.07;;
21777;SDS011;11050;52.222;20.916;2023-09-07T01:53:03;33.10;;;14.65;;
21777;SDS011;11050;52.222;20.916;2023-09-07T01:55:29;32.22;;;13.40;;
21777;SDS011;11050;52.222;20.916;2023-09-07T01:57:56;28.10;;;14.52;;
21777;SDS011;11050;52.222;20.916;2023-09-07T02:00:22;29.80;;;13.68;;
21777;SDS011;11050;52.222;20.916;2023-09-07T02:02:48;27.58;;;13.35;;
21777;SDS011;11050;52.222;20.916;2023-09-07T02:05:14;24.90;;;14.40;;
21777;SDS011;11050;52.222;20.916;2023-09-07T02:07:40;21.88;;;13.15;;
21777;SDS011;11050;52.222;20.916;2023-09-07T02:10:05;20.52;;;13.82;;
21777;SDS011;11050;52.222;20.916;2023-09-07T02:12:31;24.48;;;14.43;;
21777;SDS011;11050;52.222;20.916;2023-09-07T02:15:02;22.85;;;14.68;;
21777;SDS011;11050;52.222;20.916;2023-09-07T02:17:29;21.95;;;15.15;;
21777;SDS011;11050;52.222;20.916;2023-09-07T02:19:55;25.10;;;15.57;;
21777;SDS011;11050;52.222;20.916;2023-09-07T02:22:21;22.88;;;13.38;;
21777;SDS011;11050;52.222;20.916;2023-09-07T02:24:47;29.23;;;15.00;;
21777;SDS011;11050;52.222;20.916;2023-09-07T02:27:12;28.25;;;14.90;;
21777;SDS011;11050;52.222;20.916;2023-09-07T02:29:38;25.23;;;12.90;;
21777;SDS011;11050;52.222;20.916;2023-09-07T02:32:04;30.83;;;13.80;;
21777;SDS011;11050;52.222;20.916;2023-09-07T02:34:30;30.77;;;14.77;;
21777;SDS011;11050;52.222;20.916;2023-09-07T02:36:56;25.27;;;13.98;;
21777;SDS011;11050;52.222;20.916;2023-09-07T02:39:22;24.35;;;14.18;;
21777;SDS011;11050;52.222;20.916;2023-09-07T02:41:51;25.65;;;14.05;;
21777;SDS011;11050;52.222;20.916;2023-09-07T02:44:17;24.67;;;14.40;;
21777;SDS011;11050;52.222;20.916;2023-09-07T02:46:43;23.90;;;14.82;;
21777;SDS011;11050;52.222;20.916;2023-09-07T02:49:09;23.15;;;15.40;;
21777;SDS011;11050;52.222;20.916;2023-09-07T02:51:35;27.17;;;15.10;;
21777;SDS011;11050;52.222;20.916;2023-09-07T02:54:01;27.52;;;15.10;;
21777;SDS011;11050;52.222;20.916;2023-09-07T02:56:28;23.80;;;15.05;;
21777;SDS011;11050;52.222;20.916;2023-09-07T02:58:54;21.25;;;14.20;;
21777;SDS011;11050;52.222;20.916;2023-09-07T03:01:21;24.25;;;14.55;;
21777;SDS011;11050;52.222;20.916;2023-09-07T03:03:47;30.40;;;16.33;;
21777;SDS011;11050;52.222;20.916;2023-09-07T03:06:14;27.73;;;15.48;;
21777;SDS011;11050;52.222;20.916;2023-09-07T03:08:41;26.13;;;16.33;;
21777;SDS011;11050;52.222;20.916;2023-09-07T03:11:08;28.90;;;16.17;;
21777;SDS011;11050;52.222;20.916;2023-09-07T03:13:34;27.63;;;16.70;;
21777;SDS011;11050;52.222;20.916;2023-09-07T03:16:01;26.13;;;16.20;;
21777;SDS011;11050;52.222;20.916;2023-09-07T03:18:28;28.35;;;16.52;;
21777;SDS011;11050;52.222;20.916;2023-09-07T03:20:55;27.63;;;16.17;;
21777;SDS011;11050;52.222;20.916;2023-09-07T03:23:24;25.58;;;17.15;;
21777;SDS011;11050;52.222;20.916;2023-09-07T03:25:50;25.77;;;16.95;;
21777;SDS011;11050;52.222;20.916;2023-09-07T03:28:15;26.83;;;17.15;;
21777;SDS011;11050;52.222;20.916;2023-09-07T03:30:41;24.80;;;17.65;;
21777;SDS011;11050;52.222;20.916;2023-09-07T03:33:07;25.10;;;17.05;;
21777;SDS011;11050;52.222;20.916;2023-09-07T03:35:32;29.42;;;18.40;;
21777;SDS011;11050;52.222;20.916;2023-09-07T03:37:58;31.10;;;18.48;;
21777;SDS011;11050;52.222;20.916;2023-09-07T03:40:24;23.38;;;16.75;;
21777;SDS011;11050;52.222;20.916;2023-09-07T03:42:50;28.63;;;18.10;;
21777;SDS011;11050;52.222;20.916;2023-09-07T03:45:15;23.10;;;16.50;;
21777;SDS011;11050;52.222;20.916;2023-09-07T03:47:41;23.58;;;16.60;;
21777;SDS011;11050;52.222;20.916;2023-09-07T03:50:09;20.67;;;16.35;;
21777;SDS011;11050;52.222;20.916;2023-09-07T03:52:35;23.52;;;16.45;;
21777;SDS011;11050;52.222;20.916;2023-09-07T03:55:00;28.25;;;17.00;;
21777;SDS011;11050;52.222;20.916;2023-09-07T03:57:26;25.58;;;17.13;;
21777;SDS011;11050;52.222;20.916;2023-09-07T03:59:52;27.92;;;17.70;;
21777;SDS011;11050;52.222;20.916;2023-09-07T04:02:22;25.17;;;17.80;;
21777;SDS011;11050;52.222;20.916;2023-09-07T04:04:49;24.52;;;17.38;;
21777;SDS011;11050;52.222;20.916;2023-09-07T04:07:17;26.05;;;17.15;;
21777;SDS011;11050;52.222;20.916;2023-09-07T04:09:43;26.58;;;16.92;;
21777;SDS011;11050;52.222;20.916;2023-09-07T04:12:11;25.40;;;18.25;;
21777;SDS011;11050;52.222;20.916;2023-09-07T04:14:37;32.03;;;18.75;;
21777;SDS011;11050;52.222;20.916;2023-09-07T04:17:03;28.42;;;19.10;;
21777;SDS011;11050;52.222;20.916;2023-09-07T04:19:30;23.55;;;17.35;;
21777;SDS011;11050;52.222;20.916;2023-09-07T04:21:56;29.13;;;19.30;;
21777;SDS011;11050;52.222;20.916;2023-09-07T04:24:23;31.50;;;18.42;;
21777;SDS011;11050;52.222;20.916;2023-09-07T04:26:49;25.42;;;18.25;;
21777;SDS011;11050;52.222;20.916;2023-09-07T04:29:15;25.25;;;18.50;;
21777;SDS011;11050;52.222;20.916;2023-09-07T04:31:41;28.20;;;18.83;;
21777;SDS011;11050;52.222;20.916;2023-09-07T04:34:07;23.58;;;19.02;;
21777;SDS011;11050;52.222;20.916;2023-09-07T04:36:33;21.48;;;17.48;;
21777;SDS011;11050;52.222;20.916;2023-09-07T04:38:59;22.83;;;18.23;;
21777;SDS011;11050;52.222;20.916;2023-09-07T04:41:24;25.20;;;17.52;;
21777;SDS011;11050;52.222;20.916;2023-09-07T04:43:50;24.67;;;18.83;;
21777;SDS011;11050;52.222;20.916;2023-09-07T04:46:16;28.35;;;18.63;;
21777;SDS011;11050;52.222;20.916;2023-09-07T04:48:42;25.13;;;17.65;;
21777;SDS011;11050;52.222;20.916;2023-09-07T04:51:08;25.02;;;18.20;;
21777;SDS011;11050;52.222;20.916;2023-09-07T04:53:38;21.45;;;16.92;;
21777;SDS011;11050;52.222;20.916;2023-09-07T04:56:04;24.45;;;16.83;;
21777;SDS011;11050;52.222;20.916;2023-09-07T04:58:33;28.05;;;18.27;;
21777;SDS011;11050;52.222;20.916;2023-09-07T05:01:06;27.50;;;18.23;;
21777;SDS011;11050;52.222;20.916;2023-09-07T05:03:35;24.58;;;18.13;;
21777;SDS011;11050;52.222;20.916;2023-09-07T05:06:01;25.50;;;18.00;;
21777;SDS011;11050;52.222;20.916;2023-09-07T05:08:28;24.55;;;17.98;;
21777;SDS011;11050;52.222;20.916;2023-09-07T05:10:58;23.92;;;17.58;;
21777;SDS011;11050;52.222;20.916;2023-09-07T05:13:26;27.13;;;18.33;;
21777;SDS011;11050;52.222;20.916;2023-09-07T05:15:53;22.90;;;17.90;;
21777;SDS011;11050;52.222;20.916;2023-09-07T05:18:20;24.58;;;17.15;;
21777;SDS011;11050;52.222;20.916;2023-09-07T05:20:48;23.33;;;16.45;;
21777;SDS011;11050;52.222;20.916;2023-09-07T05:23:16;26.45;;;16.70;;
21777;SDS011;11050;52.222;20.916;2023-09-07T05:25:46;27.15;;;18.45;;
21777;SDS011;11050;52.222;20.916;2023-09-07T05:28:14;24.98;;;18.08;;
21777;SDS011;11050;52.222;20.916;2023-09-07T05:30:40;18.77;;;16.25;;
21777;SDS011;11050;52.222;20.916;2023-09-07T05:33:10;24.13;;;17.30;;
21777;SDS011;11050;52.222;20.916;2023-09-07T05:35:38;22.98;;;17.15;;
21777;SDS011;11050;52.222;20.916;2023-09-07T05:38:05;24.75;;;17.63;;
21777;SDS011;11050;52.222;20.916;2023-09-07T05:40:34;23.80;;;17.10;;
21777;SDS011;11050;52.222;20.916;2023-09-07T05:43:05;24.42;;;17.73;;
21777;SDS011;11050;52.222;20.916;2023-09-07T05:45:33;29.13;;;19.23;;
21777;SDS011;11050;52.222;20.916;2023-09-07T05:48:02;30.35;;;18.48;;
21777;SDS011;11050;52.222;20.916;2023-09-07T05:50:29;27.90;;;19.40;;
21777;SDS011;11050;52.222;20.916;2023-09-07T05:52:54;31.33;;;18.27;;
21777;SDS011;11050;52.222;20.916;2023-09-07T05:55:20;24.65;;;17.85;;
21777;SDS011;11050;52.222;20.916;2023-09-07T05:57:46;22.10;;;17.27;;
21777;SDS011;11050;52.222;20.916;2023-09-07T06:00:12;24.00;;;19.20;;
21777;SDS011;11050;52.222;20.916;2023-09-07T06:02:40;29.63;;;19.02;;
21777;SDS011;11050;52.222;20.916;2023-09-07T06:05:05;29.88;;;19.77;;
21777;SDS011;11050;52.222;20.916;2023-09-07T06:07:32;28.85;;;19.77;;
21777;SDS011;11050;52.222;20.916;2023-09-07T06:09:57;28.40;;;19.83;;
21777;SDS011;11050;52.222;20.916;2023-09-07T06:12:24;25.92;;;18.48;;
21777;SDS011;11050;52.222;20.916;2023-09-07T06:14:50;30.17;;;20.20;;
21777;SDS011;11050;52.222;20.916;2023-09-07T06:17:15;26.92;;;19.60;;
21777;SDS011;11050;52.222;20.916;2023-09-07T06:19:41;27.65;;;19.58;;
21777;SDS011;11050;52.222;20.916;2023-09-07T06:22:07;29.48;;;20.38;;
21777;SDS011;11050;52.222;20.916;2023-09-07T06:24:33;29.80;;;20.73;;
21777;SDS011;11050;52.222;20.916;2023-09-07T06:26:58;32.55;;;20.80;;
21777;SDS011;11050;52.222;20.916;2023-09-07T06:29:24;29.10;;;20.13;;
21777;SDS011;11050;52.222;20.916;2023-09-07T06:31:50;28.67;;;19.90;;
21777;SDS011;11050;52.222;20.916;2023-09-07T06:34:17;28.45;;;18.98;;
21777;SDS011;11050;52.222;20.916;2023-09-07T06:36:42;27.27;;;20.23;;
21777;SDS011;11050;52.222;20.916;2023-09-07T06:39:08;30.52;;;20.27;;
21777;SDS011;11050;52.222;20.916;2023-09-07T06:41:34;28.70;;;20.02;;
21777;SDS011;11050;52.222;20.916;2023-09-07T06:43:59;30.70;;;20.55;;
21777;SDS011;11050;52.222;20.916;2023-09-07T06:46:25;31.58;;;20.63;;
21777;SDS011;11050;52.222;20.916;2023-09-07T06:48:51;27.35;;;20.42;;
21777;SDS011;11050;52.222;20.916;2023-09-07T06:51:17;31.85;;;20.00;;
21777;SDS011;11050;52.222;20.916;2023-09-07T06:53:43;27.33;;;21.60;;
21777;SDS011;11050;52.222;20.916;2023-09-07T06:56:08;30.10;;;20.48;;
21777;SDS011;11050;52.222;20.916;2023-09-07T06:58:35;22.92;;;19.52;;
21777;SDS011;11050;52.222;20.916;2023-09-07T07:01:01;27.08;;;19.58;;
21777;SDS011;11050;52.222;20.916;2023-09-07T07:03:27;23.10;;;18.95;;
21777;SDS011;11050;52.222;20.916;2023-09-07T07:05:55;24.88;;;18.02;;
21777;SDS011;11050;52.222;20.916;2023-09-07T07:08:22;24.70;;;18.08;;
21777;SDS011;11050;52.222;20.916;2023-09-07T07:10:48;23.13;;;19.30;;
21777;SDS011;11050;52.222;20.916;2023-09-07T07:13:14;25.25;;;19.65;;
21777;SDS011;11050;52.222;20.916;2023-09-07T07:15:40;33.03;;;19.83;;
21777;SDS011;11050;52.222;20.916;2023-09-07T07:18:06;28.15;;;17.73;;
21777;SDS011;11050;52.222;20.916;2023-09-07T07:20:36;24.17;;;17.98;;
21777;SDS011;11050;52.222;20.916;2023-09-07T07:23:04;22.58;;;16.65;;
21777;SDS011;11050;52.222;20.916;2023-09-07T07:25:33;25.20;;;16.63;;
21777;SDS011;11050;52.222;20.916;2023-09-07T07:28:00;25.55;;;16.70;;
21777;SDS011;11050;52.222;20.916;2023-09-07T07:30:30;25.42;;;17.05;;
21777;SDS011;11050;52.222;20.916;2023-09-07T07:33:00;22.77;;;15.30;;
21777;SDS011;11050;52.222;20.916;2023-09-07T07:35:26;22.98;;;16.17;;
21777;SDS011;11050;52.222;20.916;2023-09-07T07:37:51;24.17;;;16.50;;
21777;SDS011;11050;52.222;20.916;2023-09-07T07:40:17;23.60;;;15.75;;
21777;SDS011;11050;52.222;20.916;2023-09-07T07:42:46;23.20;;;16.38;;
21777;SDS011;11050;52.222;20.916;2023-09-07T07:45:13;22.83;;;15.85;;
21777;SDS011;11050;52.222;20.916;2023-09-07T07:47:40;20.80;;;16.02;;
21777;SDS011;11050;52.222;20.916;2023-09-07T07:50:06;21.42;;;14.70;;
21777;SDS011;11050;52.222;20.916;2023-09-07T07:52:33;18.40;;;14.43;;
21777;SDS011;11050;52.222;20.916;2023-09-07T07:54:59;20.02;;;13.80;;
21777;SDS011;11050;52.222;20.916;2023-09-07T07:57:25;19.58;;;14.70;;
21777;SDS011;11050;52.222;20.916;2023-09-07T07:59:51;18.02;;;13.88;;
21777;SDS011;11050;52.222;20.916;2023-09-07T08:02:16;19.33;;;14.23;;
21777;SDS011;11050;52.222;20.916;2023-09-07T08:04:42;18.20;;;13.77;;
21777;SDS011;11050;52.222;20.916;2023-09-07T08:07:08;25.25;;;15.63;;
21777;SDS011;11050;52.222;20.916;2023-09-07T08:09:34;26.27;;;15.35;;
21777;SDS011;11050;52.222;20.916;2023-09-07T08:12:00;26.83;;;14.88;;
21777;SDS011;11050;52.222;20.916;2023-09-07T08:14:29;21.25;;;12.52;;
21777;SDS011;11050;52.222;20.916;2023-09-07T08:16:56;18.52;;;12.15;;
21777;SDS011;11050;52.222;20.916;2023-09-07T08:19:23;17.20;;;13.02;;
21777;SDS011;11050;52.222;20.916;2023-09-07T08:21:49;14.35;;;12.73;;
21777;SDS011;11050;52.222;20.916;2023-09-07T08:24:16;20.88;;;12.25;;
21777;SDS011;11050;52.222;20.916;2023-09-07T08:26:43;22.42;;;11.85;;
21777;SDS011;11050;52.222;20.916;2023-09-07T08:29:08;16.77;;;12.55;;
21777;SDS011;11050;52.222;20.916;2023-09-07T08:31:36;17.67;;;13.00;;
21777;SDS011;11050;52.222;20.916;2023-09-07T08:34:06;23.33;;;12.63;;
21777;SDS011;11050;52.222;20.916;2023-09-07T08:36:36;19.67;;;12.75;;
21777;SDS011;11050;52.222;20.916;2023-09-07T08:39:05;20.00;;;12.20;;
21777;SDS011;11050;52.222;20.916;2023-09-07T08:41:37;18.40;;;12.00;;
21777;SDS011;11050;52.222;20.916;2023-09-07T08:44:18;18.23;;;12.60;;
21777;SDS011;11050;52.222;20.916;2023-09-07T08:46:45;17.17;;;11.23;;
21777;SDS011;11050;52.222;20.916;2023-09-07T08:49:15;17.30;;;11.13;;
21777;SDS011;11050;52.222;20.916;2023-09-07T08:51:45;14.38;;;11.00;;
21777;SDS011;11050;52.222;20.916;2023-09-07T08:54:12;13.40;;;10.93;;
21777;SDS011;11050;52.222;20.916;2023-09-07T08:56:38;14.32;;;9.95;;
21777;SDS011;11050;52.222;20.916;2023-09-07T08:59:04;17.90;;;9.93;;
21777;SDS011;11050;52.222;20.916;2023-09-07T09:01:30;15.35;;;9.55;;
21777;SDS011;11050;52.222;20.916;2023-09-07T09:03:59;14.93;;;9.02;;
21777;SDS011;11050;52.222;20.916;2023-09-07T09:06:25;15.95;;;9.10;;
21777;SDS011;11050;52.222;20.916;2023-09-07T09:08:52;14.80;;;10.48;;
21777;SDS011;11050;52.222;20.916;2023-09-07T09:11:21;15.77;;;9.38;;
21777;SDS011;11050;52.222;20.916;2023-09-07T09:13:48;14.10;;;8.60;;
21777;SDS011;11050;52.222;20.916;2023-09-07T09:16:15;14.48;;;7.93;;
21777;SDS011;11050;52.222;20.916;2023-09-07T09:18:51;12.52;;;7.35;;
21777;SDS011;11050;52.222;20.916;2023-09-07T09:21:23;14.70;;;6.95;;
21777;SDS011;11050;52.222;20.916;2023-09-07T09:23:51;11.80;;;6.55;;
21777;SDS011;11050;52.222;20.916;2023-09-07T09:26:20;10.00;;;6.85;;
21777;SDS011;11050;52.222;20.916;2023-09-07T09:28:46;9.90;;;8.00;;
21777;SDS011;11050;52.222;20.916;2023-09-07T09:31:12;13.02;;;7.20;;
21777;SDS011;11050;52.222;20.916;2023-09-07T09:33:42;13.00;;;7.25;;
21777;SDS011;11050;52.222;20.916;2023-09-07T09:36:14;15.80;;;7.35;;
21777;SDS011;11050;52.222;20.916;2023-09-07T09:38:40;9.02;;;6.80;;
21777;SDS011;11050;52.222;20.916;2023-09-07T09:41:15;12.85;;;7.65;;
21777;SDS011;11050;52.222;20.916;2023-09-07T09:43:42;11.60;;;6.38;;
21777;SDS011;11050;52.222;20.916;2023-09-07T09:46:10;11.75;;;6.53;;
21777;SDS011;11050;52.222;20.916;2023-09-07T09:48:38;8.48;;;6.18;;
21777;SDS011;11050;52.222;20.916;2023-09-07T09:51:07;9.98;;;6.63;;
21777;SDS011;11050;52.222;20.916;2023-09-07T09:53:33;18.55;;;6.40;;
21777;SDS011;11050;52.222;20.916;2023-09-07T09:55:59;10.80;;;5.95;;
21777;SDS011;11050;52.222;20.916;2023-09-07T09:58:25;5.45;;;4.75;;
21777;SDS011;11050;52.222;20.916;2023-09-07T10:00:53;7.55;;;5.25;;
21777;SDS011;11050;52.222;20.916;2023-09-07T10:03:24;8.73;;;5.10;;
21777;SDS011;11050;52.222;20.916;2023-09-07T10:06:22;7.57;;;5.47;;
21777;SDS011;11050;52.222;20.916;2023-09-07T10:08:54;7.28;;;5.13;;
21777;SDS011;11050;52.222;20.916;2023-09-07T10:11:35;8.13;;;5.10;;
21777;SDS011;11050;52.222;20.916;2023-09-07T10:14:04;7.60;;;5.85;;
21777;SDS011;11050;52.222;20.916;2023-09-07T10:16:41;8.80;;;5.03;;
21777;SDS011;11050;52.222;20.916;2023-09-07T10:19:21;8.27;;;5.45;;
21777;SDS011;11050;52.222;20.916;2023-09-07T10:21:49;8.25;;;4.93;;
21777;SDS011;11050;52.222;20.916;2023-09-07T10:24:27;8.13;;;5.10;;
21777;SDS011;11050;52.222;20.916;2023-09-07T10:27:04;7.07;;;4.80;;
21777;SDS011;11050;52.222;20.916;2023-09-07T10:29:50;5.75;;;4.88;;
21777;SDS011;11050;52.222;20.916;2023-09-07T10:32:20;10.20;;;5.70;;
21777;SDS011;11050;52.222;20.916;2023-09-07T10:34:45;7.55;;;4.82;;
21777;SDS011;11050;52.222;20.916;2023-09-07T10:37:12;10.65;;;5.30;;
21777;SDS011;11050;52.222;20.916;2023-09-07T10:39:40;5.78;;;4.95;;
21777;SDS011;11050;52.222;20.916;2023-09-07T10:42:08;13.80;;;5.80;;
21777;SDS011;11050;52.222;20.916;2023-09-07T10:44:45;5.43;;;4.63;;
21777;SDS011;11050;52.222;20.916;2023-09-07T10:47:11;6.80;;;4.78;;
21777;SDS011;11050;52.222;20.916;2023-09-07T10:49:37;10.38;;;4.65;;
21777;SDS011;11050;52.222;20.916;2023-09-07T10:52:04;7.97;;;5.15;;
21777;SDS011;11050;52.222;20.916;2023-09-07T10:54:30;9.20;;;4.45;;
21777;SDS011;11050;52.222;20.916;2023-09-07T10:56:56;9.48;;;4.90;;
21777;SDS011;11050;52.222;20.916;2023-09-07T10:59:23;7.50;;;4.53;;
21777;SDS011;11050;52.222;20.916;2023-09-07T11:01:52;5.88;;;4.57;;
21777;SDS011;11050;52.222;20.916;2023-09-07T11:04:18;6.85;;;4.35;;
21777;SDS011;11050;52.222;20.916;2023-09-07T11:06:45;5.03;;;4.32;;
21777;SDS011;11050;52.222;20.916;2023-09-07T11:09:11;5.38;;;4.10;;
21777;SDS011;11050;52.222;20.916;2023-09-07T11:11:37;5.60;;;4.40;;
21777;SDS011;11050;52.222;20.916;2023-09-07T11:14:03;9.60;;;5.20;;
21777;SDS011;11050;52.222;20.916;2023-09-07T11:16:30;5.50;;;4.18;;
21777;SDS011;11050;52.222;20.916;2023-09-07T11:18:57;6.45;;;4.70;;
21777;SDS011;11050;52.222;20.916;2023-09-07T11:21:34;4.40;;;3.97;;
21777;SDS011;11050;52.222;20.916;2023-09-07T11:24:01;7.68;;;4.50;;
21777;SDS011;11050;52.222;20.916;2023-09-07T11:26:39;8.43;;;4.55;;
21777;SDS011;11050;52.222;20.916;2023-09-07T11:29:07;5.68;;;3.97;;
21777;SDS011;11050;52.222;20.916;2023-09-07T11:31:33;11.27;;;4.13;;
21777;SDS011;11050;52.222;20.916;2023-09-07T11:33:59;6.15;;;4.15;;
21777;SDS011;11050;52.222;20.916;2023-09-07T11:36:24;4.97;;;4.47;;
21777;SDS011;11050;52.222;20.916;2023-09-07T11:38:50;4.82;;;4.30;;
21777;SDS011;11050;52.222;20.916;2023-09-07T11:41:16;7.20;;;4.10;;
21777;SDS011;11050;52.222;20.916;2023-09-07T11:43:42;6.55;;;4.22;;
21777;SDS011;11050;52.222;20.916;2023-09-07T11:46:07;3.97;;;3.58;;
21777;SDS011;11050;52.222;20.916;2023-09-07T11:48:33;6.45;;;4.18;;
21777;SDS011;11050;52.222;20.916;2023-09-07T11:50:59;6.53;;;3.83;;
21777;SDS011;11050;52.222;20.916;2023-09-07T11:53:26;4.20;;;3.80;;
21777;SDS011;11050;52.222;20.916;2023-09-07T11:55:53;9.07;;;3.90;;
21777;SDS011;11050;52.222;20.916;2023-09-07T11:58:19;5.65;;;3.67;;
21777;SDS011;11050;52.222;20.916;2023-09-07T12:00:44;8.48;;;3.92;;
21777;SDS011;11050;52.222;20.916;2023-09-07T12:03:10;4.53;;;3.38;;
21777;SDS011;11050;52.222;20.916;2023-09-07T12:05:35;11.55;;;4.03;;
21777;SDS011;11050;52.222;20.916;2023-09-07T12:08:02;5.35;;;3.78;;
21777;SDS011;11050;52.222;20.916;2023-09-07T12:10:29;4.03;;;3.38;;
21777;SDS011;11050;52.222;20.916;2023-09-07T12:12:55;7.68;;;4.00;;
21777;SDS011;11050;52.222;20.916;2023-09-07T12:15:21;3.40;;;3.10;;
21777;SDS011;11050;52.222;20.916;2023-09-07T12:17:46;5.50;;;3.70;;
21777;SDS011;11050;52.222;20.916;2023-09-07T12:20:12;4.07;;;3.65;;
21777;SDS011;11050;52.222;20.916;2023-09-07T12:22:39;4.32;;;3.80;;
21777;SDS011;11050;52.222;20.916;2023-09-07T12:25:05;6.80;;;4.68;;
21777;SDS011;11050;52.222;20.916;2023-09-07T12:27:34;4.95;;;3.70;;
21777;SDS011;11050;52.222;20.916;2023-09-07T12:30:01;7.07;;;3.58;;
21777;SDS011;11050;52.222;20.916;2023-09-07T12:32:27;6.28;;;3.72;;
21777;SDS011;11050;52.222;20.916;2023-09-07T12:34:53;7.07;;;4.10;;
21777;SDS011;11050;52.222;20.916;2023-09-07T12:37:19;4.20;;;3.80;;
21777;SDS011;11050;52.222;20.916;2023-09-07T12:39:48;6.15;;;3.80;;
21777;SDS011;11050;52.222;20.916;2023-09-07T12:42:14;5.55;;;3.40;;
21777;SDS011;11050;52.222;20.916;2023-09-07T12:44:40;6.63;;;3.58;;
21777;SDS011;11050;52.222;20.916;2023-09-07T12:47:09;3.70;;;3.40;;
21777;SDS011;11050;52.222;20.916;2023-09-07T12:49:34;5.63;;;3.63;;
21777;SDS011;11050;52.222;20.916;2023-09-07T12:52:00;6.47;;;3.75;;
21777;SDS011;11050;52.222;20.916;2023-09-07T12:54:28;5.00;;;3.65;;
21777;SDS011;11050;52.222;20.916;2023-09-07T12:56:53;5.80;;;3.40;;
21777;SDS011;11050;52.222;20.916;2023-09-07T12:59:19;5.97;;;3.13;;
21777;SDS011;11050;52.222;20.916;2023-09-07T13:01:45;4.07;;;3.17;;
21777;SDS011;11050;52.222;20.916;2023-09-07T13:04:12;3.42;;;3.13;;
21777;SDS011;11050;52.222;20.916;2023-09-07T13:06:38;4.97;;;2.85;;
21777;SDS011;11050;52.222;20.916;2023-09-07T13:09:03;3.53;;;3.22;;
21777;SDS011;11050;52.222;20.916;2023-09-07T13:11:30;3.85;;;3.05;;
21777;SDS011;11050;52.222;20.916;2023-09-07T13:13:55;5.47;;;3.30;;
21777;SDS011;11050;52.222;20.916;2023-09-07T13:16:21;5.53;;;2.97;;
21777;SDS011;11050;52.222;20.916;2023-09-07T13:18:47;5.38;;;2.97;;
21777;SDS011;11050;52.222;20.916;2023-09-07T13:21:12;7.18;;;3.65;;
21777;SDS011;11050;52.222;20.916;2023-09-07T13:23:38;4.35;;;2.92;;
21777;SDS011;11050;52.222;20.916;2023-09-07T13:26:06;5.20;;;3.03;;
21777;SDS011;11050;52.222;20.916;2023-09-07T13:28:31;5.45;;;3.20;;
21777;SDS011;11050;52.222;20.916;2023-09-07T13:30:57;4.57;;;3.20;;
21777;SDS011;11050;52.222;20.916;2023-09-07T13:33:23;5.10;;;3.30;;
21777;SDS011;11050;52.222;20.916;2023-09-07T13:35:50;3.67;;;3.15;;
21777;SDS011;11050;52.222;20.916;2023-09-07T13:38:15;5.28;;;2.75;;
21777;SDS011;11050;52.222;20.916;2023-09-07T13:40:41;5.38;;;3.15;;
21777;SDS011;11050;52.222;20.916;2023-09-07T13:43:08;3.40;;;3.10;;
21777;SDS011;11050;52.222;20.916;2023-09-07T13:45:33;2.97;;;2.53;;
21777;SDS011;11050;52.222;20.916;2023-09-07T13:47:59;6.43;;;3.25;;
21777;SDS011;11050;52.222;20.916;2023-09-07T13:50:25;2.90;;;2.70;;
21777;SDS011;11050;52.222;20.916;2023-09-07T13:52:51;7.35;;;2.90;;
21777;SDS011;11050;52.222;20.916;2023-09-07T13:55:16;3.72;;;2.55;;
21777;SDS011;11050;52.222;20.916;2023-09-07T13:57:42;4.88;;;2.63;;
21777;SDS011;11050;52.222;20.916;2023-09-07T14:00:08;3.10;;;2.80;;
21777;SDS011;11050;52.222;20.916;2023-09-07T14:02:34;2.97;;;2.67;;
21777;SDS011;11050;52.222;20.916;2023-09-07T14:05:00;3.85;;;2.65;;
21777;SDS011;11050;52.222;20.916;2023-09-07T14:07:25;4.13;;;2.80;;
21777;SDS011;11050;52.222;20.916;2023-09-07T14:09:54;2.92;;;2.60;;
21777;SDS011;11050;52.222;20.916;2023-09-07T14:12:20;5.63;;;2.88;;
21777;SDS011;11050;52.222;20.916;2023-09-07T14:14:46;3.38;;;2.70;;
21777;SDS011;11050;52.222;20.916;2023-09-07T14:17:13;3.33;;;2.92;;